Englewood Beach, Florida
Current Conditions -  °F | °C
As of 12:55 PM on Sunday 21 Dec 2014 (Local Time) from KVNC Reporting Station
Scattered Clouds Scattered Clouds  
Wind Chill: 75°   Ceiling: Unl
Heat Index: 75°   Visibility: 10mi
Dew Point: 66°   Wind: 12mph
Humidity: 73%   Direction: 170°S
Pressure: 30.05"   Gusts: NA
Location:  26.9866°N, 82.345°W
Report Text: KVNC 211755Z AUTO 17010KT 10SM SCT070 24/19 A3005 RMK AO2 TSNO
Loading
Personal Weather Stations






























Interactive Weather Map New forecast layout! Learn more

10-Day Weather Forecast

Advertisements
Track Severe Weather on mobile